Time,TemperatureF,DewpointF,PressureIn,WindDirection,WindDirectionDegrees,WindSpeedMPH,WindSpeedGustMPH,Humidity,HourlyPrecipIn,Conditions,Clouds,dailyrainin,SoftwareType,DateUTC
2013-05-23 00:01:00,51.8,48.7,29.85,NE,45,2.9,4.5,89,0.00,,,0.00,WUHU216HW,2013-05-23 06:01:00,
2013-05-23 00:06:00,51.8,48.7,29.85,NE,45,4.3,4.5,89,0.00,,,0.00,WUHU216HW,2013-05-23 06:06:00,
2013-05-23 00:11:00,51.8,48.7,29.85,NNE,23,1.1,5.1,89,0.00,,,0.00,WUHU216HW,2013-05-23 06:11:00,
2013-05-23 00:16:00,51.7,48.2,29.85,East,90,1.1,5.1,88,0.00,,,0.00,WUHU216HW,2013-05-23 06:16:00,
2013-05-23 00:21:00,51.7,48.2,29.85,ESE,113,2.7,2.7,88,0.00,,,0.00,WUHU216HW,2013-05-23 06:21:00,
2013-05-23 00:26:00,51.7,48.5,29.85,SSE,158,5.4,5.4,89,0.00,,,0.00,WUHU216HW,2013-05-23 06:26:00,
2013-05-23 00:31:00,51.5,47.7,29.86,SSE,158,6.3,6.9,87,0.00,,,0.00,WUHU216HW,2013-05-23 06:31:00,
2013-05-23 00:36:00,51.1,47.0,29.85,SSE,158,8.3,9.8,86,0.00,,,0.00,WUHU216HW,2013-05-23 06:36:00,
2013-05-23 00:41:00,50.8,46.6,29.86,SSE,158,8.5,9.8,86,0.00,,,0.00,WUHU216HW,2013-05-23 06:41:00,
2013-05-23 00:46:00,50.4,46.3,29.86,SSE,158,4.9,8.5,86,0.00,,,0.00,WUHU216HW,2013-05-23 06:46:00,
2013-05-23 00:51:00,50.0,45.9,29.86,SSE,158,5.8,8.5,86,0.00,,,0.00,WUHU216HW,2013-05-23 06:51:00,
2013-05-23 00:56:00,49.7,45.3,29.86,SE,135,5.6,6.3,85,0.00,,,0.00,WUHU216HW,2013-05-23 06:56:00,
2013-05-23 01:01:00,49.3,44.7,29.86,SE,135,5.4,6.9,84,0.00,,,0.00,WUHU216HW,2013-05-23 07:01:00,
2013-05-23 01:06:00,49.1,44.8,29.86,SE,135,6.9,6.9,85,0.00,,,0.00,WUHU216HW,2013-05-23 07:06:00,
2013-05-23 01:11:00,48.8,44.5,29.86,SE,135,6.0,6.9,85,0.00,,,0.00,WUHU216HW,2013-05-23 07:11:00,
2013-05-23 01:16:00,48.4,44.1,29.85,SE,135,7.6,7.6,85,0.00,,,0.00,WUHU216HW,2013-05-23 07:16:00,
2013-05-23 01:21:00,48.2,43.9,29.85,SE,135,3.6,8.3,85,0.00,,,0.00,WUHU216HW,2013-05-23 07:21:00,
2013-05-23 01:26:00,48.2,43.9,29.85,SE,135,6.3,8.3,85,0.00,,,0.00,WUHU216HW,2013-05-23 07:26:00,
2013-05-23 01:31:00,48.2,43.9,29.85,SSE,158,7.6,7.6,85,0.00,,,0.00,WUHU216HW,2013-05-23 07:31:00,
2013-05-23 01:36:00,48.2,43.9,29.86,SSE,158,6.0,7.8,85,0.00,,,0.00,WUHU216HW,2013-05-23 07:36:00,
2013-05-23 01:41:00,48.1,43.7,29.86,SSE,158,6.7,7.8,85,0.00,,,0.00,WUHU216HW,2013-05-23 07:41:00,
2013-05-23 01:46:00,47.9,43.3,29.86,SSE,158,6.3,6.9,84,0.00,,,0.00,WUHU216HW,2013-05-23 07:46:00,
2013-05-23 01:51:00,47.9,43.3,29.86,SE,135,6.3,6.7,84,0.00,,,0.00,WUHU216HW,2013-05-23 07:51:00,
2013-05-23 01:57:00,47.5,43.2,29.86,SSE,158,7.8,8.7,85,0.00,,,0.00,WUHU216HW,2013-05-23 07:57:00,
2013-05-23 02:02:00,47.5,43.2,29.87,SSE,158,7.6,8.7,85,0.00,,,0.00,WUHU216HW,2013-05-23 08:02:00,
2013-05-23 02:07:00,47.3,43.0,29.87,SE,135,5.4,9.6,85,0.00,,,0.00,WUHU216HW,2013-05-23 08:07:00,
2013-05-23 02:12:00,47.2,42.9,29.87,SE,135,6.3,9.6,85,0.00,,,0.00,WUHU216HW,2013-05-23 08:12:00,
2013-05-23 02:17:00,47.2,42.9,29.87,SSE,158,5.1,6.3,85,0.00,,,0.00,WUHU216HW,2013-05-23 08:17:00,
2013-05-23 02:22:00,47.2,42.9,29.87,SE,135,3.1,6.3,85,0.00,,,0.00,WUHU216HW,2013-05-23 08:22:00,
2013-05-23 02:27:00,47.2,42.9,29.87,SSE,158,3.4,5.1,85,0.00,,,0.00,WUHU216HW,2013-05-23 08:27:00,
2013-05-23 02:32:00,47.2,42.9,29.87,SE,135,2.5,4.0,85,0.00,,,0.00,WUHU216HW,2013-05-23 08:32:00,
2013-05-23 02:37:00,47.2,42.9,29.87,South,180,4.7,4.7,85,0.00,,,0.00,WUHU216HW,2013-05-23 08:37:00,
2013-05-23 02:42:00,47.0,42.8,29.86,ESE,113,2.5,4.7,85,0.00,,,0.00,WUHU216HW,2013-05-23 08:42:00,
2013-05-23 02:47:00,46.8,42.6,29.87,SSE,158,4.7,4.7,85,0.00,,,0.00,WUHU216HW,2013-05-23 08:47:00,
2013-05-23 02:52:00,47.0,42.8,29.87,ESE,113,3.4,4.7,85,0.00,,,0.00,WUHU216HW,2013-05-23 08:52:00,
2013-05-23 02:57:00,47.0,42.4,29.87,SSW,203,3.8,6.3,84,0.00,,,0.00,WUHU216HW,2013-05-23 08:57:00,
2013-05-23 03:02:00,46.8,42.0,29.87,SSW,203,3.4,7.6,83,0.00,,,0.00,WUHU216HW,2013-05-23 09:02:00,
2013-05-23 03:07:00,46.8,42.0,29.87,SW,225,4.3,7.6,83,0.00,,,0.00,WUHU216HW,2013-05-23 09:07:00,
2013-05-23 03:12:00,46.8,41.6,29.87,SW,225,2.2,5.4,82,0.00,,,0.00,WUHU216HW,2013-05-23 09:12:00,
2013-05-23 03:17:00,46.8,42.0,29.87,SSW,203,4.0,5.1,83,0.00,,,0.00,WUHU216HW,2013-05-23 09:17:00,
2013-05-23 03:22:00,46.8,42.0,29.87,SSW,203,3.6,5.1,83,0.00,,,0.00,WUHU216HW,2013-05-23 09:22:00,
2013-05-23 03:27:00,46.8,42.0,29.87,SSE,158,3.4,3.8,83,0.00,,,0.00,WUHU216HW,2013-05-23 09:27:00,
2013-05-23 03:32:00,46.6,41.8,29.87,SSE,158,5.6,5.8,83,0.00,,,0.00,WUHU216HW,2013-05-23 09:32:00,
2013-05-23 03:37:00,46.4,41.6,29.87,SW,225,3.1,5.8,83,0.00,,,0.00,WUHU216HW,2013-05-23 09:37:00,
2013-05-23 03:42:00,46.4,41.6,29.87,WSW,248,4.0,5.4,83,0.00,,,0.00,WUHU216HW,2013-05-23 09:42:00,
2013-05-23 03:47:00,46.3,41.8,29.87,SSW,203,3.4,7.6,84,0.00,,,0.00,WUHU216HW,2013-05-23 09:47:00,
2013-05-23 03:52:00,46.1,41.2,29.87,SW,225,0.0,7.6,83,0.00,,,0.00,WUHU216HW,2013-05-23 09:52:00,
2013-05-23 03:57:00,46.1,41.2,29.88,SSE,158,1.8,3.4,83,0.00,,,0.00,WUHU216HW,2013-05-23 09:57:00,
2013-05-23 04:02:00,46.1,41.2,29.88,SW,225,1.3,2.7,83,0.00,,,0.00,WUHU216HW,2013-05-23 10:02:00,
2013-05-23 04:07:00,46.1,41.2,29.88,SSW,203,0.0,2.0,83,0.00,,,0.00,WUHU216HW,2013-05-23 10:07:00,
2013-05-23 04:12:00,46.1,41.2,29.88,SSW,203,0.7,1.8,83,0.00,,,0.00,WUHU216HW,2013-05-23 10:12:00,
2013-05-23 04:17:00,45.9,41.0,29.88,WSW,248,0.0,1.8,83,0.00,,,0.00,WUHU216HW,2013-05-23 10:17:00,
2013-05-23 04:22:00,45.7,40.9,29.87,WNW,293,0.0,1.8,83,0.00,,,0.00,WUHU216HW,2013-05-23 10:22:00,
2013-05-23 04:27:00,45.7,41.5,29.87,NNE,23,1.8,2.9,85,0.00,,,0.00,WUHU216HW,2013-05-23 10:27:00,
2013-05-23 04:32:00,45.7,41.2,29.87,NNE,23,0.4,2.9,84,0.00,,,0.00,WUHU216HW,2013-05-23 10:32:00,
2013-05-23 04:37:00,45.7,41.2,29.88,NNE,23,0.0,0.9,84,0.00,,,0.00,WUHU216HW,2013-05-23 10:37:00,
2013-05-23 04:42:00,45.7,41.2,29.88,ESE,113,1.8,1.8,84,0.00,,,0.00,WUHU216HW,2013-05-23 10:42:00,
2013-05-23 04:47:00,45.9,41.7,29.88,SE,135,1.1,2.2,85,0.00,,,0.00,WUHU216HW,2013-05-23 10:47:00,
2013-05-23 04:52:00,45.9,41.7,29.88,ESE,113,1.1,3.4,85,0.00,,,0.00,WUHU216HW,2013-05-23 10:52:00,
2013-05-23 04:57:00,45.7,41.5,29.88,SE,135,0.2,3.4,85,0.00,,,0.00,WUHU216HW,2013-05-23 10:57:00,
2013-05-23 05:02:00,45.9,41.7,29.88,NNW,338,0.7,1.1,85,0.00,,,0.00,WUHU216HW,2013-05-23 11:02:00,
2013-05-23 05:07:00,45.5,41.6,29.89,NW,315,5.4,5.4,86,0.00,,,0.00,WUHU216HW,2013-05-23 11:07:00,
2013-05-23 05:12:00,44.8,41.2,29.89,NW,315,5.4,9.2,87,0.00,,,0.00,WUHU216HW,2013-05-23 11:12:00,
2013-05-23 05:17:00,44.5,41.1,29.89,NW,315,4.7,9.2,88,0.00,,,0.00,WUHU216HW,2013-05-23 11:17:00,
2013-05-23 05:22:00,44.1,40.8,29.89,NW,315,7.2,7.2,88,0.00,,,0.00,WUHU216HW,2013-05-23 11:22:00,
2013-05-23 05:27:00,43.7,40.8,29.90,NNW,338,4.9,7.8,89,0.00,,,0.00,WUHU216HW,2013-05-23 11:27:00,
2013-05-23 05:32:00,43.6,40.6,29.90,NNW,338,2.2,7.8,89,0.00,,,0.00,WUHU216HW,2013-05-23 11:32:00,
2013-05-23 05:37:00,43.4,40.7,29.90,NNW,338,3.4,4.9,90,0.00,,,0.00,WUHU216HW,2013-05-23 11:37:00,
2013-05-23 05:42:00,43.2,40.5,29.90,NNW,338,2.5,5.4,90,0.00,,,0.00,WUHU216HW,2013-05-23 11:42:00,
2013-05-23 05:47:00,43.2,40.5,29.90,NW,315,2.5,5.4,90,0.00,,,0.00,WUHU216HW,2013-05-23 11:47:00,
2013-05-23 05:52:00,43.0,40.6,29.90,NW,315,4.7,4.7,91,0.00,,,0.00,WUHU216HW,2013-05-23 11:52:00,
2013-05-23 05:57:00,43.0,40.3,29.90,NW,315,3.4,4.7,90,0.00,,,0.00,WUHU216HW,2013-05-23 11:57:00,
2013-05-23 06:02:00,42.8,40.4,29.90,NW,315,5.8,5.8,91,0.00,,,0.00,WUHU216HW,2013-05-23 12:02:00,
2013-05-23 06:07:00,42.7,40.2,29.90,NW,315,3.4,5.8,91,0.00,,,0.00,WUHU216HW,2013-05-23 12:07:00,
2013-05-23 06:12:00,42.5,40.3,29.90,NNW,338,4.7,5.4,92,0.00,,,0.00,WUHU216HW,2013-05-23 12:12:00,
2013-05-23 06:17:00,42.5,40.3,29.90,North,0,4.0,5.4,92,0.00,,,0.00,WUHU216HW,2013-05-23 12:17:00,
2013-05-23 06:22:00,42.3,39.9,29.90,North,0,4.3,6.0,91,0.00,,,0.00,WUHU216HW,2013-05-23 12:22:00,
2013-05-23 06:27:00,42.1,40.0,29.90,NNW,338,4.3,6.0,92,0.00,,,0.00,WUHU216HW,2013-05-23 12:27:00,
2013-05-23 06:32:00,41.9,39.5,29.90,North,0,5.8,5.8,91,0.00,,,0.00,WUHU216HW,2013-05-23 12:32:00,
2013-05-23 06:37:00,41.8,39.3,29.91,North,0,2.7,6.0,91,0.00,,,0.00,WUHU216HW,2013-05-23 12:37:00,
2013-05-23 06:42:00,41.8,39.3,29.91,North,0,1.8,6.0,91,0.00,,,0.00,WUHU216HW,2013-05-23 12:42:00,
2013-05-23 06:47:00,41.6,39.4,29.91,NNE,23,4.0,4.3,92,0.00,,,0.00,WUHU216HW,2013-05-23 12:47:00,
2013-05-23 06:52:00,41.4,39.0,29.91,NNE,23,4.0,5.8,91,0.00,,,0.00,WUHU216HW,2013-05-23 12:52:00,
2013-05-23 06:57:00,41.4,39.2,29.92,NNE,23,2.0,5.8,92,0.00,,,0.00,WUHU216HW,2013-05-23 12:57:00,
2013-05-23 07:02:00,41.4,39.2,29.92,NNE,23,1.8,3.1,92,0.00,,,0.00,WUHU216HW,2013-05-23 13:02:00,
2013-05-23 07:07:00,41.4,39.2,29.93,NE,45,1.1,3.1,92,0.00,,,0.00,WUHU216HW,2013-05-23 13:07:00,
2013-05-23 07:12:00,41.4,39.2,29.93,NNW,338,1.3,2.5,92,0.00,,,0.00,WUHU216HW,2013-05-23 13:12:00,
2013-05-23 07:17:00,41.4,39.2,29.93,West,270,2.0,2.7,92,0.00,,,0.00,WUHU216HW,2013-05-23 13:17:00,
2013-05-23 07:22:00,41.4,39.0,29.93,NW,315,2.0,2.7,91,0.00,,,0.00,WUHU216HW,2013-05-23 13:22:00,
2013-05-23 07:27:00,41.4,39.0,29.93,NNW,338,1.1,2.0,91,0.00,,,0.00,WUHU216HW,2013-05-23 13:27:00,
2013-05-23 07:31:00,41.2,38.8,29.94,NNW,338,1.1,2.2,91,0.00,,,0.00,WUHU216HW,2013-05-23 13:31:00,
2013-05-23 07:37:00,41.4,39.2,29.93,NW,315,2.5,2.7,92,0.00,,,0.00,WUHU216HW,2013-05-23 13:37:00,
2013-05-23 07:42:00,41.2,39.1,29.94,WNW,293,1.6,3.4,92,0.00,,,0.00,WUHU216HW,2013-05-23 13:42:00,
2013-05-23 07:47:00,41.4,39.2,29.93,WNW,293,1.3,3.4,92,0.00,,,0.00,WUHU216HW,2013-05-23 13:47:00,
2013-05-23 07:52:00,41.4,39.2,29.94,WNW,293,2.2,3.1,92,0.00,,,0.00,WUHU216HW,2013-05-23 13:52:00,
2013-05-23 07:57:00,41.4,39.5,29.94,NW,315,2.0,3.1,93,0.00,,,0.00,WUHU216HW,2013-05-23 13:57:00,
2013-05-23 08:01:00,41.4,39.5,29.94,NNW,338,2.0,2.7,93,0.00,,,0.00,WUHU216HW,2013-05-23 14:01:00,
2013-05-23 08:07:00,41.6,39.7,29.94,NW,315,2.5,3.1,93,0.00,,,0.00,WUHU216HW,2013-05-23 14:07:00,
2013-05-23 08:12:00,41.4,39.5,29.94,NNW,338,2.0,3.4,93,0.00,,,0.00,WUHU216HW,2013-05-23 14:12:00,
2013-05-23 08:16:00,41.4,39.5,29.94,NNW,338,2.9,4.3,93,0.00,,,0.00,WUHU216HW,2013-05-23 14:16:00,
2013-05-23 08:21:00,41.4,39.5,29.94,NNW,338,4.7,4.7,93,0.00,,,0.00,WUHU216HW,2013-05-23 14:21:00,
2013-05-23 08:27:00,41.4,39.5,29.94,NNW,338,3.4,5.6,93,0.00,,,0.00,WUHU216HW,2013-05-23 14:27:00,
2013-05-23 08:31:00,41.6,39.7,29.94,NNW,338,3.4,5.6,93,0.00,,,0.00,WUHU216HW,2013-05-23 14:31:00,
2013-05-23 08:37:00,41.6,39.7,29.94,NNW,338,3.6,4.7,93,0.00,,,0.00,WUHU216HW,2013-05-23 14:37:00,
2013-05-23 08:41:00,41.9,40.1,29.93,NNW,338,3.1,5.6,93,0.00,,,0.00,WUHU216HW,2013-05-23 14:41:00,
2013-05-23 08:46:00,42.1,40.2,29.93,NW,315,1.8,5.6,93,0.00,,,0.00,WUHU216HW,2013-05-23 14:46:00,
2013-05-23 08:51:00,42.1,40.0,29.94,NW,315,3.1,3.8,92,0.00,,,0.00,WUHU216HW,2013-05-23 14:51:00,
2013-05-23 08:56:00,42.1,39.7,29.94,NW,315,2.7,3.6,91,0.00,,,0.00,WUHU216HW,2013-05-23 14:56:00,
2013-05-23 09:01:00,42.1,39.2,29.94,NNW,338,3.4,3.6,89,0.00,,,0.00,WUHU216HW,2013-05-23 15:01:00,
2013-05-23 09:06:00,42.1,39.2,29.93,North,0,5.4,6.0,89,0.00,,,0.00,WUHU216HW,2013-05-23 15:06:00,
2013-05-23 09:11:00,42.5,39.2,29.93,NNW,338,4.0,6.0,88,0.00,,,0.00,WUHU216HW,2013-05-23 15:11:00,
2013-05-23 09:16:00,42.8,39.9,29.93,NNW,338,4.0,5.4,89,0.00,,,0.00,WUHU216HW,2013-05-23 15:16:00,
2013-05-23 09:21:00,43.2,39.6,29.93,NNW,338,2.7,5.4,87,0.00,,,0.00,WUHU216HW,2013-05-23 15:21:00,
2013-05-23 09:26:00,43.4,40.1,29.93,NNW,338,4.7,4.7,88,0.00,,,0.00,WUHU216HW,2013-05-23 15:26:00,
2013-05-23 09:31:00,43.4,40.1,29.93,NW,315,5.1,6.5,88,0.00,,,0.00,WUHU216HW,2013-05-23 15:31:00,
2013-05-23 09:36:00,43.4,39.8,29.93,NW,315,4.0,6.5,87,0.00,,,0.00,WUHU216HW,2013-05-23 15:36:00,
2013-05-23 09:41:00,43.4,39.8,29.93,North,0,4.0,4.7,87,0.00,,,0.00,WUHU216HW,2013-05-23 15:41:00,
2013-05-23 09:46:00,43.6,39.6,29.93,NW,315,4.7,4.9,86,0.00,,,0.00,WUHU216HW,2013-05-23 15:46:00,
2013-05-23 09:51:00,43.7,39.8,29.93,NW,315,4.0,6.0,86,0.00,,,0.00,WUHU216HW,2013-05-23 15:51:00,
2013-05-23 09:56:00,44.1,39.9,29.93,NW,315,2.9,6.0,85,0.00,,,0.00,WUHU216HW,2013-05-23 15:56:00,
2013-05-23 10:01:00,44.3,40.1,29.93,NW,315,4.9,4.9,85,0.00,,,0.00,WUHU216HW,2013-05-23 16:01:00,
2013-05-23 10:06:00,44.3,40.1,29.93,WNW,293,5.4,5.4,85,0.00,,,0.00,WUHU216HW,2013-05-23 16:06:00,
2013-05-23 10:11:00,44.3,39.8,29.93,NW,315,5.1,6.5,84,0.00,,,0.00,WUHU216HW,2013-05-23 16:11:00,
2013-05-23 10:16:00,44.3,40.1,29.93,NW,315,5.4,6.5,85,0.00,,,0.00,WUHU216HW,2013-05-23 16:16:00,
2013-05-23 10:21:00,44.5,40.0,29.92,NW,315,6.7,6.7,84,0.00,,,0.00,WUHU216HW,2013-05-23 16:21:00,
2013-05-23 10:26:00,44.8,40.6,29.92,NW,315,4.3,6.7,85,0.00,,,0.00,WUHU216HW,2013-05-23 16:26:00,
2013-05-23 10:31:00,45.0,40.8,29.92,WNW,293,6.9,7.6,85,0.00,,,0.00,WUHU216HW,2013-05-23 16:31:00,
2013-05-23 10:36:00,45.0,40.5,29.93,WNW,293,6.7,7.6,84,0.00,,,0.00,WUHU216HW,2013-05-23 16:36:00,
2013-05-23 10:41:00,44.5,40.2,29.92,WNW,293,6.3,7.6,85,0.00,,,0.00,WUHU216HW,2013-05-23 16:41:00,
2013-05-23 10:46:00,44.6,40.7,29.93,WNW,293,6.3,7.4,86,0.00,,,0.00,WUHU216HW,2013-05-23 16:46:00,
2013-05-23 10:51:00,44.6,40.2,29.93,NW,315,6.3,6.9,84,0.00,,,0.00,WUHU216HW,2013-05-23 16:51:00,
2013-05-23 10:56:00,44.6,40.2,29.92,NW,315,5.6,7.6,84,0.00,,,0.00,WUHU216HW,2013-05-23 16:56:00,
2013-05-23 11:01:00,44.8,40.3,29.92,NW,315,7.2,7.6,84,0.00,,,0.00,WUHU216HW,2013-05-23 17:01:00,
2013-05-23 11:06:00,45.2,40.3,29.92,NW,315,3.8,7.6,83,0.00,,,0.00,WUHU216HW,2013-05-23 17:06:00,
2013-05-23 11:11:00,45.5,41.1,29.92,NW,315,4.0,7.6,84,0.00,,,0.00,WUHU216HW,2013-05-23 17:11:00,
2013-05-23 11:16:00,45.5,40.4,29.92,West,270,4.0,6.9,82,0.00,,,0.00,WUHU216HW,2013-05-23 17:16:00,
2013-05-23 11:21:00,45.4,40.2,29.92,WNW,293,5.4,6.9,82,0.00,,,0.00,WUHU216HW,2013-05-23 17:21:00,
2013-05-23 11:26:00,45.7,40.9,29.92,NW,315,7.4,7.4,83,0.00,,,0.00,WUHU216HW,2013-05-23 17:26:00,
2013-05-23 11:31:00,46.3,40.8,29.91,NW,315,6.5,7.4,81,0.00,,,0.00,WUHU216HW,2013-05-23 17:31:00,
2013-05-23 11:36:00,46.8,41.6,29.91,NW,315,8.3,8.3,82,0.00,,,0.00,WUHU216HW,2013-05-23 17:36:00,
2013-05-23 11:41:00,47.2,41.3,29.91,NW,315,6.5,8.3,80,0.00,,,0.00,WUHU216HW,2013-05-23 17:41:00,
2013-05-23 11:46:00,47.5,41.3,29.91,NW,315,6.9,7.4,79,0.00,,,0.00,WUHU216HW,2013-05-23 17:46:00,
2013-05-23 11:51:00,47.9,41.9,29.91,WNW,293,6.5,6.9,80,0.00,,,0.00,WUHU216HW,2013-05-23 17:51:00,
2013-05-23 11:56:00,48.1,41.5,29.91,NW,315,5.6,7.4,78,0.00,,,0.00,WUHU216HW,2013-05-23 17:56:00,
2013-05-23 12:01:00,48.4,41.5,29.91,NNW,338,2.0,7.4,77,0.00,,,0.00,WUHU216HW,2013-05-23 18:01:00,
2013-05-23 12:06:00,48.6,41.7,29.92,NW,315,6.3,6.3,77,0.00,,,0.00,WUHU216HW,2013-05-23 18:06:00,
2013-05-23 12:11:00,48.4,41.5,29.92,NW,315,7.6,7.6,77,0.00,,,0.00,WUHU216HW,2013-05-23 18:11:00,
2013-05-23 12:16:00,48.2,41.3,29.92,WNW,293,6.0,7.8,77,0.00,,,0.00,WUHU216HW,2013-05-23 18:16:00,
2013-05-23 12:21:00,48.2,41.3,29.92,WNW,293,5.4,7.8,77,0.00,,,0.00,WUHU216HW,2013-05-23 18:21:00,
2013-05-23 12:26:00,48.6,41.3,29.92,WNW,293,5.6,6.9,76,0.00,,,0.00,WUHU216HW,2013-05-23 18:26:00,
2013-05-23 12:31:00,48.4,41.1,29.92,West,270,8.5,8.5,76,0.00,,,0.00,WUHU216HW,2013-05-23 18:31:00,
2013-05-23 12:36:00,47.9,40.6,29.92,WNW,293,6.0,8.5,76,0.00,,,0.00,WUHU216HW,2013-05-23 18:36:00,
2013-05-23 12:41:00,48.1,41.5,29.92,NW,315,5.4,7.8,78,0.00,,,0.00,WUHU216HW,2013-05-23 18:41:00,
2013-05-23 12:46:00,48.6,41.7,29.92,WNW,293,7.6,9.8,77,0.00,,,0.00,WUHU216HW,2013-05-23 18:46:00,
2013-05-23 12:51:00,48.8,41.1,29.92,NW,315,8.3,9.8,75,0.00,,,0.00,WUHU216HW,2013-05-23 18:51:00,
2013-05-23 12:56:00,48.6,41.0,29.91,WNW,293,6.5,8.3,75,0.00,,,0.00,WUHU216HW,2013-05-23 18:56:00,
2013-05-23 13:01:00,48.2,40.6,29.92,WNW,293,7.8,8.5,75,0.00,,,0.00,WUHU216HW,2013-05-23 19:01:00,
2013-05-23 13:06:00,48.4,40.8,29.91,WNW,293,8.5,8.7,75,0.00,,,0.00,WUHU216HW,2013-05-23 19:06:00,
2013-05-23 13:11:00,48.8,41.9,29.92,NW,315,5.4,9.8,77,0.00,,,0.00,WUHU216HW,2013-05-23 19:11:00,
2013-05-23 13:16:00,49.3,41.3,29.92,NW,315,5.6,9.8,74,0.00,,,0.00,WUHU216HW,2013-05-23 19:16:00,
2013-05-23 13:21:00,49.3,41.0,29.92,NW,315,8.3,8.7,73,0.00,,,0.00,WUHU216HW,2013-05-23 19:21:00,
2013-05-23 13:26:00,49.1,41.1,29.92,NW,315,7.4,9.2,74,0.00,,,0.00,WUHU216HW,2013-05-23 19:26:00,
2013-05-23 13:31:00,49.0,41.3,29.92,NW,315,8.7,9.2,75,0.00,,,0.00,WUHU216HW,2013-05-23 19:31:00,
2013-05-23 13:36:00,48.8,40.8,29.92,WNW,293,5.4,9.2,74,0.00,,,0.00,WUHU216HW,2013-05-23 19:36:00,
2013-05-23 13:41:00,48.8,41.5,29.92,WNW,293,6.5,11.0,76,0.00,,,0.00,WUHU216HW,2013-05-23 19:41:00,
2013-05-23 13:46:00,49.0,40.6,29.92,NW,315,5.6,11.0,73,0.00,,,0.00,WUHU216HW,2013-05-23 19:46:00,
2013-05-23 13:51:00,49.3,41.3,29.92,NW,315,7.6,10.5,74,0.00,,,0.00,WUHU216HW,2013-05-23 19:51:00,
2013-05-23 13:56:00,49.5,40.9,29.92,NNW,338,7.6,10.5,72,0.00,,,0.00,WUHU216HW,2013-05-23 19:56:00,
2013-05-23 14:01:00,49.5,40.9,29.91,NW,315,8.5,9.2,72,0.00,,,0.00,WUHU216HW,2013-05-23 20:01:00,
2013-05-23 14:06:00,49.9,41.2,29.92,NW,315,8.5,9.6,72,0.00,,,0.00,WUHU216HW,2013-05-23 20:06:00,
2013-05-23 14:11:00,49.9,40.9,29.91,NW,315,9.4,9.8,71,0.00,,,0.00,WUHU216HW,2013-05-23 20:11:00,
2013-05-23 14:16:00,50.0,41.4,29.91,NW,315,8.5,10.3,72,0.00,,,0.00,WUHU216HW,2013-05-23 20:16:00,
2013-05-23 14:21:00,50.2,40.9,29.92,NNW,338,6.3,10.5,70,0.00,,,0.00,WUHU216HW,2013-05-23 20:21:00,
2013-05-23 14:26:00,50.2,40.5,29.91,NW,315,9.2,10.5,69,0.00,,,0.00,WUHU216HW,2013-05-23 20:26:00,
2013-05-23 14:31:00,50.0,41.1,29.91,North,0,8.1,9.2,71,0.00,,,0.00,WUHU216HW,2013-05-23 20:31:00,
2013-05-23 14:36:00,49.9,40.5,29.91,NNW,338,5.6,9.2,70,0.00,,,0.00,WUHU216HW,2013-05-23 20:36:00,
2013-05-23 14:41:00,49.9,41.5,29.91,WNW,293,6.7,11.4,73,0.00,,,0.00,WUHU216HW,2013-05-23 20:41:00,
2013-05-23 14:46:00,50.4,41.4,29.91,NW,315,5.6,11.4,71,0.00,,,0.00,WUHU216HW,2013-05-23 20:46:00,
2013-05-23 14:51:00,50.4,40.7,29.91,NNW,338,7.6,8.3,69,0.00,,,0.00,WUHU216HW,2013-05-23 20:51:00,
2013-05-23 14:56:00,50.8,41.8,29.90,NNW,338,4.5,7.6,71,0.00,,,0.00,WUHU216HW,2013-05-23 20:56:00,
2013-05-23 15:01:00,51.1,41.3,29.90,NW,315,5.6,8.3,69,0.00,,,0.00,WUHU216HW,2013-05-23 21:01:00,
2013-05-23 15:06:00,50.8,41.1,29.90,NW,315,9.2,9.2,69,0.00,,,0.00,WUHU216HW,2013-05-23 21:06:00,
2013-05-23 15:11:00,50.4,41.0,29.90,NNW,338,6.9,9.8,70,0.00,,,0.00,WUHU216HW,2013-05-23 21:11:00,
2013-05-23 15:16:00,50.2,41.6,29.90,NW,315,4.7,9.8,72,0.00,,,0.00,WUHU216HW,2013-05-23 21:16:00,
2013-05-23 15:21:00,50.0,40.7,29.90,NNW,338,8.1,8.1,70,0.00,,,0.00,WUHU216HW,2013-05-23 21:21:00,
2013-05-23 15:26:00,49.9,40.2,29.90,NW,315,3.6,8.1,69,0.00,,,0.00,WUHU216HW,2013-05-23 21:26:00,
2013-05-23 15:31:00,49.7,39.5,29.91,NNW,338,4.0,7.6,68,0.00,,,0.00,WUHU216HW,2013-05-23 21:31:00,
2013-05-23 15:36:00,49.5,39.8,29.91,NW,315,4.7,7.6,69,0.00,,,0.00,WUHU216HW,2013-05-23 21:36:00,
2013-05-23 15:41:00,49.3,40.0,29.91,NNW,338,3.4,6.3,70,0.00,,,0.00,WUHU216HW,2013-05-23 21:41:00,
2013-05-23 15:46:00,49.1,41.5,29.90,NNW,338,5.4,6.5,75,0.00,,,0.00,WUHU216HW,2013-05-23 21:46:00,
2013-05-23 15:51:00,49.1,41.9,29.90,NNW,338,6.9,9.2,76,0.00,,,0.00,WUHU216HW,2013-05-23 21:51:00,
2013-05-23 15:56:00,49.3,42.7,29.90,NW,315,6.9,9.2,78,0.00,,,0.00,WUHU216HW,2013-05-23 21:56:00,
2013-05-23 16:01:00,49.3,42.0,29.91,NW,315,5.1,9.2,76,0.00,,,0.00,WUHU216HW,2013-05-23 22:01:00,
2013-05-23 16:06:00,49.0,41.3,29.91,West,270,5.4,6.9,75,0.00,,,0.00,WUHU216HW,2013-05-23 22:06:00,
2013-05-23 16:11:00,48.6,41.3,29.91,NW,315,2.9,6.9,76,0.00,,,0.00,WUHU216HW,2013-05-23 22:11:00,
2013-05-23 16:16:00,48.4,40.8,29.91,NNW,338,6.3,6.3,75,0.00,,,0.00,WUHU216HW,2013-05-23 22:16:00,
2013-05-23 16:21:00,48.2,41.0,29.91,NW,315,7.2,7.4,76,0.00,,,0.00,WUHU216HW,2013-05-23 22:21:00,
2013-05-23 16:26:00,48.2,41.0,29.91,NW,315,6.9,7.4,76,0.00,,,0.00,WUHU216HW,2013-05-23 22:26:00,
2013-05-23 16:31:00,48.1,41.1,29.90,NW,315,7.4,7.4,77,0.00,,,0.00,WUHU216HW,2013-05-23 22:31:00,
2013-05-23 16:36:00,48.1,41.5,29.90,NW,315,5.4,8.9,78,0.00,,,0.00,WUHU216HW,2013-05-23 22:36:00,
2013-05-23 16:41:00,47.9,41.9,29.90,WNW,293,6.5,8.9,80,0.00,,,0.00,WUHU216HW,2013-05-23 22:41:00,
2013-05-23 16:46:00,47.9,41.9,29.90,NW,315,6.9,6.9,80,0.00,,,0.00,WUHU216HW,2013-05-23 22:46:00,
2013-05-23 16:51:00,48.1,42.5,29.90,NW,315,7.6,7.6,81,0.00,,,0.00,WUHU216HW,2013-05-23 22:51:00,
2013-05-23 16:56:00,48.2,41.6,29.90,NW,315,6.5,7.6,78,0.00,,,0.00,WUHU216HW,2013-05-23 22:56:00,
2013-05-23 17:01:00,48.2,41.3,29.90,NNW,338,5.4,7.6,77,0.00,,,0.00,WUHU216HW,2013-05-23 23:01:00,
2013-05-23 17:06:00,47.9,40.6,29.90,NNW,338,5.1,7.6,76,0.00,,,0.00,WUHU216HW,2013-05-23 23:06:00,
2013-05-23 17:11:00,47.9,40.6,29.89,NNW,338,3.6,5.4,76,0.00,,,0.00,WUHU216HW,2013-05-23 23:11:00,
2013-05-23 17:16:00,47.7,40.2,29.89,NNW,338,5.4,5.6,75,0.00,,,0.00,WUHU216HW,2013-05-23 23:16:00,
2013-05-23 17:21:00,47.7,40.4,29.89,NNW,338,3.1,5.8,76,0.00,,,0.00,WUHU216HW,2013-05-23 23:21:00,
2013-05-23 17:26:00,47.7,40.2,29.89,NW,315,4.7,5.8,75,0.00,,,0.00,WUHU216HW,2013-05-23 23:26:00,
2013-05-23 17:31:00,47.7,39.1,29.89,North,0,1.8,4.7,72,0.00,,,0.00,WUHU216HW,2013-05-23 23:31:00,
2013-05-23 17:36:00,47.7,39.1,29.89,NW,315,3.8,4.0,72,0.00,,,0.00,WUHU216HW,2013-05-23 23:36:00,
2013-05-23 17:41:00,47.9,38.9,29.89,North,0,2.9,4.0,71,0.00,,,0.00,WUHU216HW,2013-05-23 23:41:00,
2013-05-23 17:46:00,47.9,38.9,29.89,NNW,338,1.8,3.8,71,0.00,,,0.00,WUHU216HW,2013-05-23 23:46:00,
2013-05-23 17:51:00,48.1,39.1,29.88,North,0,3.8,3.8,71,0.00,,,0.00,WUHU216HW,2013-05-23 23:51:00,
2013-05-23 17:56:00,48.6,40.0,29.88,North,0,2.5,3.8,72,0.00,,,0.00,WUHU216HW,2013-05-23 23:56:00,
2013-05-23 18:01:00,49.0,40.3,29.89,NNW,338,3.4,4.3,72,0.00,,,0.00,WUHU216HW,2013-05-24 00:01:00,
2013-05-23 18:06:00,49.0,40.0,29.88,NW,315,2.5,4.3,71,0.00,,,0.00,WUHU216HW,2013-05-24 00:06:00,
2013-05-23 18:11:00,49.0,39.3,29.87,NNW,338,2.7,4.0,69,0.00,,,0.00,WUHU216HW,2013-05-24 00:11:00,
2013-05-23 18:16:00,49.0,39.3,29.87,NW,315,2.9,3.8,69,0.00,,,0.00,WUHU216HW,2013-05-24 00:16:00,
2013-05-23 18:21:00,49.1,40.2,29.87,NW,315,4.9,4.9,71,0.00,,,0.00,WUHU216HW,2013-05-24 00:21:00,
2013-05-23 18:26:00,49.3,39.6,29.88,WNW,293,3.4,4.9,69,0.00,,,0.00,WUHU216HW,2013-05-24 00:26:00,
2013-05-23 18:31:00,49.3,39.6,29.88,NW,315,2.9,4.3,69,0.00,,,0.00,WUHU216HW,2013-05-24 00:31:00,
2013-05-23 18:36:00,49.3,39.6,29.88,NW,315,5.4,5.4,69,0.00,,,0.00,WUHU216HW,2013-05-24 00:36:00,
2013-05-23 18:41:00,49.3,39.6,29.88,NW,315,4.0,5.4,69,0.00,,,0.00,WUHU216HW,2013-05-24 00:41:00,
2013-05-23 18:46:00,49.3,39.2,29.88,NW,315,4.0,4.0,68,0.00,,,0.00,WUHU216HW,2013-05-24 00:46:00,
2013-05-23 18:51:00,49.3,39.2,29.88,NW,315,3.4,4.0,68,0.00,,,0.00,WUHU216HW,2013-05-24 00:51:00,
2013-05-23 18:56:00,49.3,39.2,29.87,NW,315,2.5,3.4,68,0.00,,,0.00,WUHU216HW,2013-05-24 00:56:00,
2013-05-23 19:01:00,49.3,39.2,29.87,NNW,338,3.1,3.4,68,0.00,,,0.00,WUHU216HW,2013-05-24 01:01:00,
2013-05-23 19:06:00,49.3,39.2,29.87,WNW,293,0.9,3.1,68,0.00,,,0.00,WUHU216HW,2013-05-24 01:06:00,
2013-05-23 19:11:00,49.5,39.8,29.87,NW,315,3.4,3.4,69,0.00,,,0.00,WUHU216HW,2013-05-24 01:11:00,
2013-05-23 19:16:00,49.5,39.8,29.87,NW,315,2.5,3.4,69,0.00,,,0.00,WUHU216HW,2013-05-24 01:16:00,
2013-05-23 19:21:00,49.5,39.3,29.87,North,0,3.4,3.4,68,0.00,,,0.00,WUHU216HW,2013-05-24 01:21:00,
2013-05-23 19:26:00,49.5,39.8,29.87,NNW,338,1.8,3.4,69,0.00,,,0.00,WUHU216HW,2013-05-24 01:26:00,
2013-05-23 19:31:00,49.5,39.3,29.87,North,0,2.7,4.3,68,0.00,,,0.00,WUHU216HW,2013-05-24 01:31:00,
2013-05-23 19:36:00,49.5,39.3,29.86,NNW,338,3.4,4.3,68,0.00,,,0.00,WUHU216HW,2013-05-24 01:36:00,
2013-05-23 19:41:00,49.5,38.6,29.87,NNE,23,4.3,4.7,66,0.00,,,0.00,WUHU216HW,2013-05-24 01:41:00,
2013-05-23 19:46:00,49.7,38.3,29.87,North,0,2.9,4.7,65,0.00,,,0.00,WUHU216HW,2013-05-24 01:46:00,
2013-05-23 19:51:00,49.7,38.0,29.87,North,0,4.0,4.3,64,0.00,,,0.00,WUHU216HW,2013-05-24 01:51:00,
2013-05-23 19:56:00,49.7,38.0,29.87,NNE,23,3.1,4.0,64,0.00,,,0.00,WUHU216HW,2013-05-24 01:56:00,
2013-05-23 20:01:00,49.5,38.2,29.87,North,0,4.0,4.5,65,0.00,,,0.00,WUHU216HW,2013-05-24 02:01:00,
2013-05-23 20:06:00,49.5,38.2,29.87,North,0,6.3,6.3,65,0.00,,,0.00,WUHU216HW,2013-05-24 02:06:00,
2013-05-23 20:11:00,49.5,38.2,29.87,North,0,2.9,6.3,65,0.00,,,0.00,WUHU216HW,2013-05-24 02:11:00,
2013-05-23 20:16:00,49.5,38.2,29.88,North,0,2.2,4.3,65,0.00,,,0.00,WUHU216HW,2013-05-24 02:16:00,
2013-05-23 20:21:00,49.5,37.8,29.88,NNE,23,3.4,4.5,64,0.00,,,0.00,WUHU216HW,2013-05-24 02:21:00,
2013-05-23 20:26:00,49.5,38.2,29.88,North,0,2.2,4.5,65,0.00,,,0.00,WUHU216HW,2013-05-24 02:26:00,
2013-05-23 20:31:00,49.3,38.0,29.88,North,0,3.8,4.3,65,0.00,,,0.00,WUHU216HW,2013-05-24 02:31:00,
2013-05-23 20:36:00,49.3,38.4,29.88,NNW,338,2.7,3.8,66,0.00,,,0.00,WUHU216HW,2013-05-24 02:36:00,
2013-05-23 20:41:00,49.1,38.6,29.89,North,0,1.1,3.8,67,0.00,,,0.00,WUHU216HW,2013-05-24 02:41:00,
2013-05-23 20:46:00,48.8,38.6,29.89,NNE,23,1.1,3.4,68,0.00,,,0.00,WUHU216HW,2013-05-24 02:46:00,
2013-05-23 20:51:00,48.6,38.5,29.90,WNW,293,1.3,2.9,68,0.00,,,0.00,WUHU216HW,2013-05-24 02:51:00,
2013-05-23 20:56:00,48.6,39.6,29.90,North,0,1.1,1.6,71,0.00,,,0.00,WUHU216HW,2013-05-24 02:56:00,
2013-05-23 21:01:00,48.4,40.1,29.90,NE,45,1.8,2.9,73,0.00,,,0.00,WUHU216HW,2013-05-24 03:01:00,
2013-05-23 21:06:00,48.1,39.8,29.90,NE,45,0.0,2.9,73,0.00,,,0.00,WUHU216HW,2013-05-24 03:06:00,
2013-05-23 21:11:00,47.9,41.7,29.90,North,0,1.6,1.6,79,0.00,,,0.00,WUHU216HW,2013-05-24 03:11:00,
2013-05-23 21:16:00,47.7,40.8,29.90,NNE,23,0.9,2.2,77,0.00,,,0.00,WUHU216HW,2013-05-24 03:16:00,
2013-05-23 21:21:00,47.5,41.3,29.90,NW,315,2.2,2.2,79,0.00,,,0.00,WUHU216HW,2013-05-24 03:21:00,
2013-05-23 21:26:00,47.3,41.5,29.91,NNW,338,3.1,4.9,80,0.00,,,0.00,WUHU216HW,2013-05-24 03:26:00,
2013-05-23 21:31:00,47.2,41.3,29.91,NW,315,4.0,4.9,80,0.00,,,0.00,WUHU216HW,2013-05-24 03:31:00,
2013-05-23 21:36:00,47.0,41.5,29.91,NNW,338,2.7,4.0,81,0.00,,,0.00,WUHU216HW,2013-05-24 03:36:00,
2013-05-23 21:41:00,46.6,41.5,29.91,NNW,338,2.5,4.0,82,0.00,,,0.00,WUHU216HW,2013-05-24 03:41:00,
2013-05-23 21:46:00,46.4,41.3,29.90,NE,45,5.4,5.6,82,0.00,,,0.00,WUHU216HW,2013-05-24 03:46:00,
2013-05-23 21:51:00,46.3,40.8,29.92,North,0,0.0,5.6,81,0.00,,,0.00,WUHU216HW,2013-05-24 03:51:00,
2013-05-23 21:56:00,46.3,41.1,29.91,NE,45,4.0,4.7,82,0.00,,,0.00,WUHU216HW,2013-05-24 03:56:00,
2013-05-23 22:01:00,46.1,41.0,29.92,NNE,23,2.0,4.7,82,0.00,,,0.00,WUHU216HW,2013-05-24 04:01:00,
2013-05-23 22:06:00,45.7,40.6,29.92,NE,45,3.1,4.9,82,0.00,,,0.00,WUHU216HW,2013-05-24 04:06:00,
2013-05-23 22:11:00,45.5,40.4,29.93,NNE,23,2.7,4.9,82,0.00,,,0.00,WUHU216HW,2013-05-24 04:11:00,
2013-05-23 22:16:00,45.5,40.7,29.94,North,0,0.7,2.7,83,0.00,,,0.00,WUHU216HW,2013-05-24 04:16:00,
2013-05-23 22:21:00,45.5,40.4,29.94,NW,315,1.3,2.7,82,0.00,,,0.00,WUHU216HW,2013-05-24 04:21:00,
2013-05-23 22:26:00,45.5,41.3,29.94,WNW,293,2.2,2.5,85,0.00,,,0.00,WUHU216HW,2013-05-24 04:26:00,
2013-05-23 22:31:00,45.5,39.8,29.95,West,270,6.3,10.7,80,0.00,,,0.00,WUHU216HW,2013-05-24 04:31:00,
2013-05-23 22:36:00,45.5,39.1,29.94,NW,315,2.5,10.7,78,0.00,,,0.00,WUHU216HW,2013-05-24 04:36:00,
2013-05-23 22:41:00,45.4,38.9,29.94,NW,315,2.5,6.0,78,0.00,,,0.00,WUHU216HW,2013-05-24 04:41:00,
2013-05-23 22:46:00,45.4,39.2,29.94,North,0,1.1,3.4,79,0.00,,,0.00,WUHU216HW,2013-05-24 04:46:00,
2013-05-23 22:51:00,45.2,38.7,29.93,NW,315,6.0,6.0,78,0.00,,,0.00,WUHU216HW,2013-05-24 04:51:00,
2013-05-23 22:56:00,45.0,38.5,29.94,NW,315,7.4,7.4,78,0.00,,,0.00,WUHU216HW,2013-05-24 04:56:00,
2013-05-23 23:01:00,44.8,38.3,29.93,North,0,4.0,7.4,78,0.00,,,0.00,WUHU216HW,2013-05-24 05:01:00,
2013-05-23 23:06:00,44.6,38.9,29.93,North,0,2.2,4.5,80,0.00,,,0.00,WUHU216HW,2013-05-24 05:06:00,
2013-05-23 23:11:00,44.5,39.0,29.92,NNW,338,3.1,5.1,81,0.00,,,0.00,WUHU216HW,2013-05-24 05:11:00,
2013-05-23 23:16:00,44.3,39.4,29.92,NNE,23,2.7,5.1,83,0.00,,,0.00,WUHU216HW,2013-05-24 05:16:00,
2013-05-23 23:21:00,44.1,39.9,29.92,North,0,2.5,4.3,85,0.00,,,0.00,WUHU216HW,2013-05-24 05:21:00,
2013-05-23 23:26:00,43.9,40.0,29.92,NNW,338,4.5,4.5,86,0.00,,,0.00,WUHU216HW,2013-05-24 05:26:00,
2013-05-23 23:31:00,43.7,39.5,29.92,North,0,5.8,6.9,85,0.00,,,0.00,WUHU216HW,2013-05-24 05:31:00,
2013-05-23 23:36:00,43.9,39.1,29.91,North,0,4.3,8.3,83,0.00,,,0.00,WUHU216HW,2013-05-24 05:36:00,
2013-05-23 23:41:00,43.9,39.1,29.91,North,0,6.7,8.3,83,0.00,,,0.00,WUHU216HW,2013-05-24 05:41:00,
2013-05-23 23:46:00,43.7,38.6,29.92,NNE,23,5.4,8.3,82,0.00,,,0.00,WUHU216HW,2013-05-24 05:46:00,
2013-05-23 23:51:00,43.7,38.6,29.92,NNE,23,5.4,7.2,82,0.00,,,0.00,WUHU216HW,2013-05-24 05:51:00,
2013-05-23 23:56:00,43.7,38.3,29.91,North,0,5.4,7.2,81,0.00,,,0.00,WUHU216HW,2013-05-24 05:56:00,